• Join FlightAware (Why Join?)
  • Login
  • US Flag 
04:25PM EST


 

Airport Tracker/Info


-or-


 

Live Flight TrackerFlight Track Log ✈ RPA3392 ✈ 16-May-2013 ✈ KDCA - KALB

Flight Track Log - Related Links

Times and Time Zones

All times are in EDT time to prevent confusion due to time zone crossing. See the RPA3392 flight status page for this flight to view local times or setup timezone preferences in your user account.

Time Position Orientation Groundspeed Altitude Reporting Facility
EDT Latitude Longitude Course Direction KTS MPH feet Rate Location/Type
10:09PM 38.8833 -77.0500 57° Northeast 155 178 1,500  Level Potomac TRACON
10:11PM 38.9616 -76.6987 67° East  Level FlightAware Approximate
10:11PM 38.9533 -77.1425 314° West 216 249 5,800  Level Washington Center
10:12PM 39.0061 -76.5878 57° Northeast  Level FlightAware Approximate
10:12PM 39.0103 -77.0928 34° Northeast 204 235 9,000  Level Washington Center
10:13PM 39.0497 -76.4759 63° Northeast  Level FlightAware Approximate
10:13PM 39.0264 -76.9783 80° East 199 229 11,900  Level Washington Center
10:14PM 39.0958 -76.3654 61° Northeast  Level FlightAware Approximate
10:14PM 39.0442 -76.8583 79° East 287 330 14,600  Level Washington Center
10:15PM 39.1250 -76.2500 57° Northeast  Level FlightAware Approximate
10:15PM 39.0664 -76.7278 78° East 326 375 16,400  Level Washington Center
10:16PM 39.0886 -76.5864 79° East 367 422 18,700 2,220 Climbing Washington Center
10:17PM 39.1147 -76.4422 77° East 396 456 20,900 2,100 Climbing Washington Center
10:18PM 39.1094 -76.2897 93° East 413 475 22,900 1,020 Climbing Washington Center
10:19PM 39.1019 -76.1186 93° East 428 493 23,000 300 Climbing Washington Center
10:20PM 39.1567 -75.9717 64° Northeast 428 493 23,600 900 Climbing Washington Center
10:21PM 39.2278 -75.8328 57° Northeast 440 506 24,900 1,260 Climbing Washington Center
10:22PM 39.3197 -75.7150 45° Northeast 455 524 26,100 1,080 Climbing Washington Center
10:23PM 39.4156 -75.5917 45° Northeast 460 529 27,100 960 Climbing Washington Center
10:24PM 39.5114 -75.4678 45° Northeast 472 543 28,100 840 Climbing Washington Center
10:25PM 39.6092 -75.3411 45° Northeast 482 555 28,900 240 Climbing Washington Center
10:27PM 39.7908 -75.0828 47° Northeast 484 557 29,000  Climbing New York Center
10:28PM 39.8853 -74.9506 47° Northeast 491 565 29,000  Level New York Center
10:29PM 39.9944 -74.8053 46° Northeast 498 573 29,000  Level New York Center
10:30PM 40.0886 -74.6725 47° Northeast 503 579 29,000  Level New York Center
10:31PM 40.1808 -74.5336 49° Northeast 503 579 29,000  Level New York Center
10:32PM 40.2847 -74.4086 43° Northeast 503 579 29,000  Level New York Center
10:33PM 40.4000 -74.3194 30° Northeast 488 562 29,000  Level New York Center
10:36PM 40.7039 -74.2525 North 456 525 29,000  Level Boston Center
10:37PM 40.8378 -74.2286 North 469 540 29,000  Level Boston Center
10:38PM 40.9675 -74.1994 10° North 469 540 29,000  Level Boston Center
10:39PM 41.0950 -74.1725 North 469 540 29,000  Level Boston Center
10:40PM 41.2247 -74.1428 10° North 464 534 29,000 -780 Level Boston Center
10:41PM 41.3628 -74.1106 10° North 464 534 27,500 -1,920 Descending Boston Center
10:42PM 41.4881 -74.0833 North 459 528 25,200 -2,280 Descending Boston Center
10:43PM 41.5969 -74.0611 North 459 528 23,000 -2,160 Descending Boston Center
10:44PM 41.7139 -74.0336 10° North 436 502 20,900 -1,980 Descending Boston Center
10:45PM 41.8308 -74.0114 North 420 483 19,100 -1,920 Descending Boston Center
10:45PM 41.8644 -74.0039 North 407 468 18,400 -2,160 Descending Boston Center
10:46PM 41.9606 -73.9811 10° North 389 448 16,500 -2,100 Descending Boston Center
10:47PM 42.0422 -73.9608 10° North 381 438 14,900 -1,980 Descending Boston Center
10:48PM 42.1361 -73.9381 10° North 376 433 13,100 -1,920 Descending Boston Center
10:48PM 42.1697 -73.9331 North 376 433 12,500 -2,100 Descending Boston Center
10:49PM 42.2450 -73.9097 13° North 366 421 11,000 -1,980 Descending Boston Center
10:49PM 42.2764 -73.9047 North 360 414 10,500 -1,020 Descending Boston Center
10:50PM 42.3308 -73.8892 12° North 352 405 10,000 -840 Descending Boston Center
10:50PM 42.3642 -73.8817 North 311 358 9,700 -1,320 Descending Boston Center
10:51PM 42.4164 -73.8658 13° North 303 349 8,700 -1,680 Descending Boston Center
10:51PM 42.4394 -73.8636 North 266 306 8,000 -1,920 Descending Boston Center
10:52PM 42.4856 -73.8478 14° North 277 319 6,800 -1,740 Descending Boston Center
10:52PM 42.5211 -73.8403 North 274 315 6,100 -1,620 Descending Boston Center
10:53PM 42.5650 -73.8242 15° North 277 319 5,200 -1,440 Descending Boston Center
10:53PM 42.5942 -73.8192 North 257 296 4,700 -1,260 Descending Boston Center